Time;durP1;ratioP1;P1;durP2;ratioP2;P2;SDS_P1;SDS_P2;PMS_P1;PMS_P2;Temp;Humidity;BMP_temperature;BMP_pressure;BME280_temperature;BME280_humidity;BME280_pressure;Samples;Min_cycle;Max_cycle;Signal;HPM_P1;HPM_P2
2021/08/25 00:02:03;;;;;;;38.95;31.40;;;20.20;55.40;;;;;;4992827;28;20381;-76
2021/08/25 00:04:29;;;;;;;36.30;28.08;;;20.10;55.30;;;;;;4992816;28;20034;-76
2021/08/25 00:06:54;;;;;;;25.73;16.83;;;20.10;55.60;;;;;;4993221;28;20027;-77
2021/08/25 00:09:20;;;;;;;18.88;13.95;;;20.10;55.90;;;;;;4993130;28;20074;-78
2021/08/25 00:11:46;;;;;;;23.65;17.65;;;20.10;55.70;;;;;;4975710;28;20084;-77
2021/08/25 00:14:12;;;;;;;21.65;15.60;;;20.10;55.60;;;;;;4993570;28;20030;-76
2021/08/25 00:16:38;;;;;;;21.65;16.17;;;20.10;55.60;;;;;;4993433;28;20018;-80
2021/08/25 00:19:03;;;;;;;19.92;13.25;;;20.10;55.60;;;;;;4993615;28;20384;-78
2021/08/25 00:21:29;;;;;;;19.52;13.40;;;20.10;55.20;;;;;;4996694;28;20049;-78
2021/08/25 00:23:55;;;;;;;24.60;16.50;;;20.10;55.00;;;;;;4979037;28;20026;-78
2021/08/25 00:26:21;;;;;;;28.52;16.95;;;20.10;55.00;;;;;;4994344;28;20038;-78
2021/08/25 00:28:46;;;;;;;24.95;17.25;;;20.10;54.90;;;;;;4975948;28;20480;-77
2021/08/25 00:31:15;;;;;;;24.73;15.45;;;20.10;54.90;;;;;;4993077;28;20033;-77
2021/08/25 00:33:41;;;;;;;26.35;15.93;;;20.10;55.00;;;;;;4992581;28;20037;-77
2021/08/25 00:36:07;;;;;;;26.98;17.23;;;20.10;55.00;;;;;;4992543;28;20027;-77
2021/08/25 00:38:32;;;;;;;25.55;16.77;;;20.10;55.40;;;;;;4992583;28;20380;-76
2021/08/25 00:40:58;;;;;;;28.20;16.92;;;20.20;55.90;;;;;;4974714;28;20047;-77
2021/08/25 00:43:24;;;;;;;29.15;17.30;;;20.20;56.60;;;;;;4992358;28;20030;-77
2021/08/25 00:45:50;;;;;;;26.23;16.52;;;20.20;57.40;;;;;;4994168;28;20034;-77
2021/08/25 00:48:17;;;;;;;14.52;11.35;;;20.20;57.00;;;;;;4996357;28;20026;-76
2021/08/25 00:50:47;;;;;;;19.35;11.45;;;20.20;56.20;;;;;;4978930;28;20038;-77
2021/08/25 00:53:13;;;;;;;18.25;10.82;;;20.20;55.60;;;;;;4996300;28;20069;-78
2021/08/25 00:55:39;;;;;;;12.90;9.85;;;20.20;55.40;;;;;;4996235;28;20026;-79
2021/08/25 00:58:09;;;;;;;14.52;10.98;;;20.20;55.00;;;;;;4996240;28;20022;-78
2021/08/25 01:00:45;;;;;;;16.50;10.18;;;20.30;55.00;;;;;;4996407;28;20033;-78
2021/08/25 01:03:18;;;;;;;17.17;10.88;;;20.30;54.90;;;;;;4996150;28;20032;-78
2021/08/25 01:05:47;;;;;;;14.45;10.15;;;20.30;55.20;;;;;;4996260;28;20098;-78
2021/08/25 01:08:14;;;;;;;14.45;10.20;;;20.30;54.90;;;;;;4996211;28;20034;-78
2021/08/25 01:10:40;;;;;;;13.93;10.27;;;20.30;54.70;;;;;;4996168;28;20024;-79
2021/08/25 01:13:08;;;;;;;15.57;9.88;;;20.30;54.60;;;;;;4996105;28;20030;-78
2021/08/25 01:15:37;;;;;;;14.15;10.52;;;20.30;54.60;;;;;;4978685;28;20476;-78
2021/08/25 01:18:04;;;;;;;15.98;9.88;;;20.30;54.70;;;;;;4978543;28;20061;-79
2021/08/25 01:20:31;;;;;;;17.38;10.32;;;20.40;54.60;;;;;;4995770;28;20018;-79
2021/08/25 01:22:58;;;;;;;14.02;10.43;;;20.40;54.60;;;;;;4978168;28;20032;-78
2021/08/25 01:25:30;;;;;;;16.08;10.52;;;20.40;54.80;;;;;;4995731;28;20420;-79
2021/08/25 01:27:59;;;;;;;17.77;10.88;;;20.40;55.00;;;;;;4995703;28;20093;-78
2021/08/25 01:30:27;;;;;;;17.88;11.40;;;20.40;55.30;;;;;;4995649;28;20026;-78
2021/08/25 01:32:53;;;;;;;15.25;11.32;;;20.40;55.50;;;;;;4995324;28;20072;-77
2021/08/25 01:35:19;;;;;;;17.42;10.80;;;20.40;55.60;;;;;;4995562;28;20031;-78
2021/08/25 01:37:48;;;;;;;44.70;29.92;;;20.40;55.70;;;;;;4995624;28;20085;-78
2021/08/25 01:40:14;;;;;;;21.25;13.93;;;20.40;56.10;;;;;;4977964;28;20388;-78
2021/08/25 01:42:43;;;;;;;22.23;14.02;;;20.40;56.50;;;;;;4995496;28;20042;-78
2021/08/25 01:45:09;;;;;;;22.15;14.80;;;20.50;57.10;;;;;;4977939;28;20432;-76
2021/08/25 01:47:34;;;;;;;21.00;13.50;;;20.50;57.50;;;;;;4995341;28;20027;-75
2021/08/25 01:50:00;;;;;;;19.98;13.18;;;20.50;57.70;;;;;;4995287;28;20061;-77
2021/08/25 01:52:26;;;;;;;21.77;13.75;;;20.50;57.70;;;;;;4995267;28;20116;-76
2021/08/25 01:54:52;;;;;;;24.95;15.27;;;20.60;57.90;;;;;;4995367;28;20160;-77
2021/08/25 01:57:19;;;;;;;25.88;17.55;;;20.60;58.20;;;;;;4994065;28;20097;-78
2021/08/25 01:59:45;;;;;;;25.60;17.13;;;20.50;58.10;;;;;;4994920;28;20030;-77
2021/08/25 02:02:11;;;;;;;27.08;17.70;;;20.50;57.90;;;;;;4994977;28;20378;-77
2021/08/25 02:04:37;;;;;;;28.30;18.75;;;20.50;57.80;;;;;;4994865;28;20089;-77
2021/08/25 02:07:04;;;;;;;33.53;20.55;;;20.50;57.80;;;;;;4995042;28;20436;-76
2021/08/25 02:09:30;;;;;;;28.77;18.23;;;20.40;57.90;;;;;;4978181;28;20030;-77
2021/08/25 02:11:56;;;;;;;38.95;28.00;;;20.40;58.00;;;;;;4994901;28;20034;-78
2021/08/25 02:14:21;;;;;;;30.33;17.70;;;20.30;57.90;;;;;;4994753;28;20023;-78
2021/08/25 02:16:47;;;;;;;40.83;21.65;;;20.20;57.90;;;;;;4994800;28;20369;-77
2021/08/25 02:19:13;;;;;;;35.30;23.30;;;20.20;58.00;;;;;;4994844;28;20031;-77
2021/08/25 02:21:39;;;;;;;25.02;16.85;;;20.10;58.00;;;;;;4994674;28;20056;-78
2021/08/25 02:24:04;;;;;;;32.15;17.23;;;20.10;58.20;;;;;;4994859;28;20551;-77
2021/08/25 02:26:30;;;;;;;32.47;18.45;;;20.00;58.20;;;;;;4977432;28;20038;-77
2021/08/25 02:28:56;;;;;;;27.98;17.80;;;19.90;58.30;;;;;;4994565;28;20376;-77
2021/08/25 02:31:22;;;;;;;23.23;16.05;;;19.90;58.40;;;;;;4994700;28;20083;-77
2021/08/25 02:33:49;;;;;;;25.13;15.75;;;19.90;58.50;;;;;;4994620;28;20392;-76
2021/08/25 02:36:16;;;;;;;21.48;15.65;;;19.90;58.30;;;;;;4976956;28;20022;-77
2021/08/25 02:38:42;;;;;;;22.95;15.18;;;19.80;58.40;;;;;;4994526;28;20061;-77
2021/08/25 02:41:10;;;;;;;25.15;17.67;;;19.80;58.30;;;;;;4994546;28;20488;-76
2021/08/25 02:43:36;;;;;;;47.00;28.05;;;19.80;58.40;;;;;;4994371;28;20107;-76
2021/08/25 02:46:03;;;;;;;27.20;16.23;;;19.80;58.60;;;;;;4976820;28;20173;-78
2021/08/25 02:48:28;;;;;;;27.98;16.45;;;19.80;58.60;;;;;;4994196;28;20026;-78
2021/08/25 02:50:54;;;;;;;28.00;17.30;;;19.80;59.00;;;;;;4994078;28;20368;-78
2021/08/25 02:53:20;;;;;;;26.75;16.60;;;19.90;59.60;;;;;;4994138;28;20034;-78
2021/08/25 02:55:46;;;;;;;29.55;17.15;;;19.90;60.10;;;;;;4994237;28;20524;-81
2021/08/25 02:58:12;;;;;;;28.27;17.30;;;19.90;60.40;;;;;;4993838;28;20572;-79
2021/08/25 03:00:38;;;;;;;29.65;18.42;;;19.90;60.50;;;;;;4994349;28;20365;-78
2021/08/25 03:03:04;;;;;;;28.55;19.10;;;20.00;60.60;;;;;;4993978;28;20041;-77
2021/08/25 03:05:30;;;;;;;25.88;17.08;;;20.00;60.70;;;;;;4994024;28;20168;-78
2021/08/25 03:07:55;;;;;;;29.85;16.52;;;20.00;60.80;;;;;;4993570;28;20089;-77
2021/08/25 03:10:21;;;;;;;24.40;16.55;;;20.00;60.70;;;;;;4993797;28;20058;-77
2021/08/25 03:12:47;;;;;;;27.13;17.52;;;20.20;60.80;;;;;;4976116;28;20038;-77
2021/08/25 03:15:13;;;;;;;26.48;17.30;;;20.30;60.60;;;;;;4993652;28;20085;-78
2021/08/25 03:17:39;;;;;;;27.70;16.67;;;20.50;60.40;;;;;;4976157;28;20022;-78
2021/08/25 03:20:07;;;;;;;28.48;17.15;;;20.70;60.30;;;;;;4993719;28;20026;-78
2021/08/25 03:22:34;;;;;;;22.67;15.95;;;20.90;60.10;;;;;;4976333;28;20428;-77
2021/08/25 03:25:00;;;;;;;27.65;16.40;;;21.10;59.80;;;;;;4993523;28;20031;-77
2021/08/25 03:27:25;;;;;;;27.25;16.15;;;21.20;59.30;;;;;;4993551;28;20026;-77
2021/08/25 03:29:51;;;;;;;26.50;15.63;;;21.30;58.70;;;;;;4993416;28;20033;-78
2021/08/25 03:32:17;;;;;;;27.08;17.02;;;21.40;58.40;;;;;;4993141;28;20023;-78
2021/08/25 03:34:45;;;;;;;25.30;16.88;;;21.40;58.00;;;;;;4993272;28;20546;-78
2021/08/25 03:37:11;;;;;;;23.77;16.33;;;21.40;57.60;;;;;;4975945;28;20030;-77
2021/08/25 03:39:37;;;;;;;27.05;16.85;;;21.50;57.10;;;;;;4993293;28;20030;-77
2021/08/25 03:42:03;;;;;;;31.50;17.60;;;21.50;56.40;;;;;;4975624;28;20058;-78
2021/08/25 03:44:29;;;;;;;25.38;16.25;;;21.40;56.30;;;;;;4992963;28;20026;-78
2021/08/25 03:46:56;;;;;;;26.67;15.68;;;21.30;56.00;;;;;;4975523;28;20030;-78
2021/08/25 03:49:22;;;;;;;27.27;17.58;;;21.20;56.30;;;;;;4992791;28;20476;-76
2021/08/25 03:51:47;;;;;;;31.60;20.80;;;21.20;57.20;;;;;;4992926;28;20031;-77
2021/08/25 03:54:13;;;;;;;27.23;20.08;;;21.10;57.70;;;;;;4993063;28;20018;-76
2021/08/25 03:56:40;;;;;;;28.50;20.77;;;21.00;57.90;;;;;;4992919;28;20022;-77
2021/08/25 03:59:06;;;;;;;27.60;20.45;;;20.90;58.10;;;;;;4992972;28;20019;-77
2021/08/25 04:01:32;;;;;;;32.72;21.42;;;20.80;58.20;;;;;;4992913;28;20033;-76
2021/08/25 04:03:57;;;;;;;29.42;20.92;;;20.70;58.40;;;;;;4992857;28;20026;-76
2021/08/25 04:06:23;;;;;;;37.88;21.98;;;20.60;58.60;;;;;;4992688;28;20473;-77
2021/08/25 04:08:49;;;;;;;32.72;20.45;;;20.60;58.90;;;;;;4992369;28;20156;-76
2021/08/25 04:11:19;;;;;;;33.40;21.75;;;20.50;59.00;;;;;;4992664;28;20354;-76
2021/08/25 04:13:44;;;;;;;34.67;21.70;;;20.50;59.30;;;;;;4992576;28;20022;-77
2021/08/25 04:16:10;;;;;;;33.78;22.15;;;20.50;59.60;;;;;;4992469;28;20022;-77
2021/08/25 04:18:36;;;;;;;35.83;21.55;;;20.50;59.60;;;;;;4974836;28;20104;-77
2021/08/25 04:21:01;;;;;;;32.50;22.90;;;20.40;59.50;;;;;;4991535;28;20350;-76
2021/08/25 04:23:27;;;;;;;40.97;25.48;;;20.40;59.70;;;;;;4992517;28;20098;-77
2021/08/25 04:25:53;;;;;;;43.33;28.90;;;20.40;60.00;;;;;;4992262;28;20037;-77
2021/08/25 04:28:19;;;;;;;44.85;24.92;;;20.40;60.40;;;;;;4992359;28;20077;-77
2021/08/25 04:30:44;;;;;;;39.92;24.70;;;20.40;60.60;;;;;;4995467;28;20053;-76
2021/08/25 04:33:10;;;;;;;35.25;24.00;;;20.40;60.60;;;;;;5011707;28;20018;-77
2021/08/25 04:35:36;;;;;;;41.00;24.55;;;20.40;60.60;;;;;;5011369;28;20053;-75
2021/08/25 04:38:01;;;;;;;33.45;22.60;;;20.40;60.60;;;;;;5008909;28;20022;-75
2021/08/25 04:40:28;;;;;;;35.75;23.73;;;20.40;60.50;;;;;;5004233;28;20092;-75
2021/08/25 04:42:54;;;;;;;32.85;22.17;;;20.50;60.40;;;;;;5002114;28;20030;-75
2021/08/25 04:45:19;;;;;;;35.28;22.50;;;20.50;60.20;;;;;;5001072;28;20025;-75
2021/08/25 04:47:45;;;;;;;44.10;25.15;;;20.60;60.10;;;;;;5000726;28;20026;-79
2021/08/25 04:50:11;;;;;;;40.90;23.00;;;20.70;60.30;;;;;;4999792;28;20088;-77
2021/08/25 04:52:37;;;;;;;40.65;21.83;;;20.70;60.10;;;;;;4985063;28;20037;-81
2021/08/25 04:55:03;;;;;;;36.78;23.08;;;20.70;60.00;;;;;;4983475;28;20026;-79
2021/08/25 04:57:29;;;;;;;35.00;23.08;;;20.80;59.90;;;;;;5001201;28;20094;-78
2021/08/25 04:59:54;;;;;;;36.13;21.30;;;20.90;60.20;;;;;;4999021;28;20022;-78
2021/08/25 05:02:20;;;;;;;35.58;21.80;;;20.90;59.90;;;;;;5001060;28;20026;-78
2021/08/25 05:04:47;;;;;;;40.97;23.10;;;21.00;59.50;;;;;;5000419;28;20465;-75
2021/08/25 05:07:16;;;;;;;33.25;19.65;;;21.10;59.70;;;;;;5000559;28;20080;-77
2021/08/25 05:09:41;;;;;;;30.67;20.00;;;21.20;58.80;;;;;;5004067;28;20038;-77
2021/08/25 05:12:07;;;;;;;40.08;20.45;;;21.30;58.50;;;;;;5000045;28;20029;-76
2021/08/25 05:14:34;;;;;;;45.38;21.67;;;21.40;58.30;;;;;;5001584;28;20022;-76
2021/08/25 05:17:02;;;;;;;38.33;22.02;;;21.50;58.20;;;;;;4999632;28;20023;-76
2021/08/25 05:19:28;;;;;;;40.85;22.45;;;21.50;58.10;;;;;;5000909;28;20030;-76
2021/08/25 05:21:53;;;;;;;39.22;22.05;;;21.50;58.10;;;;;;5004246;28;20364;-77
2021/08/25 05:24:20;;;;;;;34.00;20.45;;;21.60;58.10;;;;;;4986401;28;20145;-76
2021/08/25 05:26:49;;;;;;;36.45;21.25;;;21.80;58.00;;;;;;5000425;28;20018;-73
2021/08/25 05:29:14;;;;;;;34.53;21.63;;;21.90;57.90;;;;;;4981495;28;20113;-79
2021/08/25 05:31:40;;;;;;;33.28;21.15;;;22.00;57.80;;;;;;5002365;28;20125;-83
2021/08/25 05:34:06;;;;;;;31.23;20.70;;;22.10;57.80;;;;;;5004049;28;20050;-79
2021/08/25 05:36:32;;;;;;;31.05;18.75;;;22.30;57.60;;;;;;4985139;28;20140;-78
2021/08/25 05:38:58;;;;;;;34.85;20.80;;;22.30;56.90;;;;;;4988628;28;20053;-81
2021/08/25 05:41:24;;;;;;;32.05;18.17;;;22.40;56.60;;;;;;5008210;28;20054;-81
2021/08/25 05:43:49;;;;;;;33.88;19.73;;;22.50;56.40;;;;;;4989222;28;20476;-81
2021/08/25 05:46:15;;;;;;;34.50;19.55;;;22.60;56.20;;;;;;5006878;28;20029;-82
2021/08/25 05:48:41;;;;;;;39.92;19.92;;;22.70;56.00;;;;;;5006650;28;20030;-80
2021/08/25 05:51:07;;;;;;;31.77;19.70;;;22.70;56.20;;;;;;5005903;28;20025;-78
2021/08/25 05:53:32;;;;;;;37.72;20.80;;;22.70;56.30;;;;;;4985059;28;20026;-78
2021/08/25 05:55:58;;;;;;;43.80;22.08;;;22.80;56.50;;;;;;5003982;28;20027;-77
2021/08/25 05:58:24;;;;;;;40.67;21.83;;;22.80;56.90;;;;;;4987685;28;20030;-79
2021/08/25 06:00:50;;;;;;;37.78;21.05;;;22.80;57.40;;;;;;5002263;28;20021;-75
2021/08/25 06:03:15;;;;;;;36.67;22.52;;;22.80;57.60;;;;;;4985950;28;20018;-78
2021/08/25 06:05:41;;;;;;;42.88;22.50;;;22.90;57.50;;;;;;5003367;28;20114;-76
2021/08/25 06:08:07;;;;;;;31.80;19.63;;;22.90;57.50;;;;;;5001983;28;20028;-77
2021/08/25 06:10:32;;;;;;;34.15;19.25;;;22.90;57.50;;;;;;5004194;28;20452;-77
2021/08/25 06:12:58;;;;;;;33.30;19.80;;;22.90;57.40;;;;;;5004758;28;20789;-77
2021/08/25 06:15:24;;;;;;;30.98;20.05;;;22.90;57.20;;;;;;5004918;28;20536;-78
2021/08/25 06:17:49;;;;;;;34.85;20.40;;;22.90;57.10;;;;;;4987302;28;20022;-77
2021/08/25 06:20:15;;;;;;;41.95;29.60;;;22.90;57.00;;;;;;4985566;28;20022;-79
2021/08/25 06:22:41;;;;;;;36.35;19.90;;;22.90;57.10;;;;;;4998501;28;20392;-75
2021/08/25 06:25:08;;;;;;;32.60;20.45;;;22.90;57.20;;;;;;4994816;28;20037;-77
2021/08/25 06:27:34;;;;;;;33.92;21.33;;;22.90;57.60;;;;;;5004487;28;20021;-77
2021/08/25 06:30:00;;;;;;;34.20;19.88;;;23.00;57.80;;;;;;5014690;28;20036;-75
2021/08/25 06:32:26;;;;;;;31.95;18.65;;;23.00;58.30;;;;;;4996452;28;20121;-75
2021/08/25 06:34:51;;;;;;;31.90;18.17;;;23.10;58.90;;;;;;4995916;28;20026;-74
2021/08/25 06:37:17;;;;;;;30.58;18.80;;;23.20;59.10;;;;;;5013483;28;20427;-75
2021/08/25 06:39:43;;;;;;;23.92;16.60;;;23.30;59.10;;;;;;5014478;28;20034;-76
2021/08/25 06:42:09;;;;;;;34.70;18.95;;;23.50;59.10;;;;;;5014601;28;20124;-75
2021/08/25 06:44:34;;;;;;;30.83;17.45;;;23.60;59.00;;;;;;4995817;28;20056;-75
2021/08/25 06:47:00;;;;;;;34.90;18.67;;;23.70;58.80;;;;;;5014309;28;20457;-75
2021/08/25 06:49:26;;;;;;;36.67;19.60;;;23.80;58.70;;;;;;5014313;28;20040;-76
2021/08/25 06:51:51;;;;;;;35.97;18.10;;;23.90;58.70;;;;;;5014177;28;20029;-75
2021/08/25 06:54:17;;;;;;;32.17;19.52;;;23.90;58.80;;;;;;5013792;28;20032;-73
2021/08/25 06:56:43;;;;;;;31.20;20.27;;;24.00;58.90;;;;;;5013203;28;20037;-74
2021/08/25 06:59:09;;;;;;;35.97;18.17;;;24.00;59.10;;;;;;4995782;28;20029;-74
2021/08/25 07:01:35;;;;;;;25.20;16.92;;;24.10;59.10;;;;;;5012941;28;20026;-74
2021/08/25 07:04:00;;;;;;;34.92;17.38;;;24.10;59.20;;;;;;5013032;28;20018;-74
2021/08/25 07:06:26;;;;;;;38.67;20.92;;;24.10;59.00;;;;;;5005595;28;20030;-75
2021/08/25 07:08:52;;;;;;;41.42;18.65;;;24.10;59.00;;;;;;4998427;28;20071;-73
2021/08/25 07:11:17;;;;;;;35.47;19.25;;;24.10;59.30;;;;;;5000629;28;20468;-74
2021/08/25 07:13:43;;;;;;;40.15;22.88;;;24.10;59.60;;;;;;5001648;28;20026;-73
2021/08/25 07:16:14;;;;;;;38.65;18.83;;;24.10;59.60;;;;;;5004208;28;20026;-73
2021/08/25 07:18:43;;;;;;;32.20;17.33;;;24.10;59.60;;;;;;5000419;28;20025;-76
2021/08/25 07:21:12;;;;;;;34.10;17.90;;;24.10;59.90;;;;;;5001534;28;20025;-74
2021/08/25 07:23:38;;;;;;;33.03;18.98;;;24.10;60.10;;;;;;5002551;28;20027;-74
2021/08/25 07:26:03;;;;;;;30.00;18.33;;;24.10;60.80;;;;;;4989973;28;20053;-76
2021/08/25 07:28:29;;;;;;;31.17;17.35;;;24.10;60.20;;;;;;5004490;28;20018;-76
2021/08/25 07:30:55;;;;;;;28.75;17.25;;;24.10;60.20;;;;;;5002086;28;20022;-75
2021/08/25 07:33:22;;;;;;;27.17;17.15;;;24.10;60.10;;;;;;5000353;28;20018;-75
2021/08/25 07:35:48;;;;;;;30.63;18.52;;;24.10;60.20;;;;;;5001573;28;20460;-76
2021/08/25 07:38:15;;;;;;;31.05;18.15;;;24.20;60.30;;;;;;5001424;28;20027;-76
2021/08/25 07:40:41;;;;;;;33.70;18.00;;;24.30;60.40;;;;;;4999686;28;20060;-76
2021/08/25 07:43:07;;;;;;;25.00;16.35;;;24.30;60.40;;;;;;5000315;28;20062;-78
2021/08/25 07:45:35;;;;;;;27.45;17.00;;;24.30;60.20;;;;;;5001272;28;20056;-76
2021/08/25 07:48:01;;;;;;;25.60;15.90;;;24.30;60.30;;;;;;4984758;28;20484;-75
2021/08/25 07:50:27;;;;;;;25.38;16.02;;;24.40;60.50;;;;;;5000056;28;20065;-74
2021/08/25 07:52:52;;;;;;;23.73;16.17;;;24.40;60.60;;;;;;5001124;28;20026;-76
2021/08/25 07:55:18;;;;;;;22.42;15.63;;;24.50;60.70;;;;;;4984141;28;20444;-76
2021/08/25 07:57:44;;;;;;;24.27;14.93;;;24.60;60.60;;;;;;4999538;28;20033;-75
2021/08/25 08:00:10;;;;;;;23.13;15.82;;;24.50;60.70;;;;;;5001396;28;20030;-76
2021/08/25 08:02:36;;;;;;;26.75;16.63;;;24.60;60.60;;;;;;5001143;28;20061;-75
2021/08/25 08:05:04;;;;;;;29.73;16.25;;;24.60;60.40;;;;;;5000222;28;20057;-76
2021/08/25 08:07:30;;;;;;;26.75;16.30;;;24.60;60.20;;;;;;5000622;28;20464;-76
2021/08/25 08:09:55;;;;;;;20.92;15.73;;;24.60;60.00;;;;;;5001602;28;20076;-75
2021/08/25 08:12:21;;;;;;;25.92;17.13;;;24.70;59.70;;;;;;4999738;28;20050;-76
2021/08/25 08:14:47;;;;;;;23.05;16.00;;;24.80;59.50;;;;;;5001029;28;20443;-76
2021/08/25 08:17:15;;;;;;;23.23;15.73;;;25.00;59.50;;;;;;4983919;28;20029;-76
2021/08/25 08:19:41;;;;;;;22.98;14.80;;;25.10;59.10;;;;;;4999872;28;20045;-76
2021/08/25 08:22:07;;;;;;;23.40;15.27;;;25.30;58.80;;;;;;4983878;28;20734;-77
2021/08/25 08:24:32;;;;;;;27.05;15.13;;;25.50;58.60;;;;;;5001048;28;20101;-77
2021/08/25 08:26:58;;;;;;;21.50;15.65;;;25.60;58.40;;;;;;4999548;28;20065;-73
2021/08/25 08:29:25;;;;;;;19.90;14.27;;;25.60;58.10;;;;;;5004699;28;20026;-78
2021/08/25 08:31:50;;;;;;;35.30;15.50;;;25.70;58.00;;;;;;5003070;28;20017;-75
2021/08/25 08:34:17;;;;;;;30.98;21.55;;;25.60;57.90;;;;;;5001543;28;20085;-76
2021/08/25 08:36:42;;;;;;;31.65;19.55;;;25.70;57.90;;;;;;4999637;28;20025;-76
2021/08/25 08:39:08;;;;;;;23.83;17.05;;;25.70;57.80;;;;;;4982694;28;20026;-77
2021/08/25 08:41:34;;;;;;;29.10;18.80;;;25.70;57.70;;;;;;5010576;28;20065;-78
2021/08/25 08:44:00;;;;;;;40.88;18.13;;;25.60;57.70;;;;;;5011462;28;20030;-76
2021/08/25 08:46:26;;;;;;;30.85;16.63;;;25.60;58.50;;;;;;5010810;28;20030;-75
2021/08/25 08:48:53;;;;;;;24.63;16.45;;;25.50;58.00;;;;;;5002295;28;20514;-74
2021/08/25 08:51:23;;;;;;;29.65;16.38;;;25.40;58.20;;;;;;5001111;28;20010;-75
2021/08/25 08:53:50;;;;;;;24.17;15.00;;;25.30;58.70;;;;;;5000317;28;20015;-74
2021/08/25 08:56:16;;;;;;;27.33;15.90;;;25.30;59.10;;;;;;4983033;28;20337;-79
2021/08/25 08:58:43;;;;;;;24.83;15.18;;;25.20;59.50;;;;;;4984355;28;20031;-78
2021/08/25 09:01:09;;;;;;;28.33;16.05;;;25.20;60.50;;;;;;5004416;28;20080;-80
2021/08/25 09:03:40;;;;;;;23.40;14.82;;;25.20;59.90;;;;;;5004037;28;20367;-79
2021/08/25 09:06:08;;;;;;;22.13;15.23;;;25.20;60.00;;;;;;5003836;28;20050;-78
2021/08/25 09:08:41;;;;;;;20.52;14.70;;;25.20;60.00;;;;;;5005232;28;20023;-75
2021/08/25 09:11:14;;;;;;;21.08;13.77;;;25.20;60.00;;;;;;5006099;28;20026;-79
2021/08/25 09:13:48;;;;;;;24.05;14.70;;;25.10;59.70;;;;;;5006847;28;20022;-78
2021/08/25 09:16:44;;;;;;;24.52;15.02;;;25.10;59.70;;;;;;5009588;28;20484;-79
2021/08/25 09:19:18;;;;;;;18.15;13.65;;;25.00;59.70;;;;;;4998774;28;20037;-76
2021/08/25 09:21:52;;;;;;;21.50;15.25;;;24.90;59.70;;;;;;5011064;28;20502;-79
2021/08/25 09:24:37;;;;;;;24.98;16.42;;;24.90;60.10;;;;;;5004905;28;20018;-78
2021/08/25 09:27:13;;;;;;;28.25;15.65;;;24.80;60.00;;;;;;5005461;28;20033;-78
2021/08/25 09:29:44;;;;;;;24.25;16.05;;;24.80;60.20;;;;;;5008711;28;20027;-79
2021/08/25 09:32:18;;;;;;;26.35;16.10;;;24.60;60.40;;;;;;5007205;28;20018;-77
2021/08/25 09:34:44;;;;;;;26.52;17.08;;;24.60;60.80;;;;;;4987623;28;20066;-78
2021/08/25 09:37:15;;;;;;;23.25;16.65;;;24.50;61.00;;;;;;5004535;28;20495;-78
2021/08/25 09:39:47;;;;;;;21.45;15.70;;;24.30;61.10;;;;;;5004828;28;20217;-77
2021/08/25 09:42:16;;;;;;;25.23;17.65;;;24.10;61.30;;;;;;5003890;28;20103;-78
2021/08/25 09:44:43;;;;;;;27.42;15.80;;;23.90;61.70;;;;;;5005542;28;20036;-77
2021/08/25 09:47:08;;;;;;;31.58;17.20;;;23.80;62.10;;;;;;5005716;28;20026;-77
2021/08/25 09:49:34;;;;;;;23.83;16.85;;;23.70;62.60;;;;;;5005468;28;20033;-79
2021/08/25 09:52:00;;;;;;;23.95;16.15;;;23.60;62.70;;;;;;5003960;28;20033;-78
2021/08/25 09:54:26;;;;;;;22.23;16.65;;;23.60;63.30;;;;;;5003612;28;20118;-78
2021/08/25 09:56:54;;;;;;;28.40;18.45;;;23.60;63.30;;;;;;4989334;28;20113;-76
2021/08/25 09:59:20;;;;;;;31.80;18.27;;;23.50;63.60;;;;;;4988683;28;20425;-77
2021/08/25 10:01:48;;;;;;;26.00;16.85;;;23.60;64.00;;;;;;5004494;28;20026;-76
2021/08/25 10:04:15;;;;;;;22.83;16.35;;;23.60;64.10;;;;;;5014381;28;20153;-77
2021/08/25 10:06:46;;;;;;;23.83;16.30;;;23.70;64.00;;;;;;5015591;28;20038;-76
2021/08/25 10:09:13;;;;;;;25.70;16.40;;;23.80;64.00;;;;;;4997244;28;20399;-76
2021/08/25 10:11:45;;;;;;;26.75;17.85;;;23.90;63.60;;;;;;5014640;28;20522;-78
2021/08/25 10:14:13;;;;;;;30.10;16.83;;;23.90;63.10;;;;;;5013966;28;20026;-74
2021/08/25 10:16:47;;;;;;;28.70;17.52;;;24.00;62.50;;;;;;5013734;28;20018;-75
2021/08/25 10:19:28;;;;;;;31.10;16.23;;;23.90;62.40;;;;;;5012433;28;20098;-79
2021/08/25 10:22:24;;;;;;;27.88;17.88;;;24.00;62.50;;;;;;5011786;28;20115;-76
2021/08/25 10:24:53;;;;;;;29.58;17.60;;;24.10;62.40;;;;;;5001186;28;20038;-75
2021/08/25 10:27:20;;;;;;;24.92;16.90;;;24.20;62.10;;;;;;5003417;28;20097;-77
2021/08/25 10:30:01;;;;;;;27.48;16.38;;;24.20;61.70;;;;;;5003551;28;20084;-77
2021/08/25 10:32:27;;;;;;;25.77;16.42;;;24.40;61.50;;;;;;5002711;28;20160;-76
2021/08/25 10:35:22;;;;;;;25.05;16.45;;;24.50;60.80;;;;;;4984808;28;20117;-78
2021/08/25 10:37:49;;;;;;;29.95;16.00;;;24.70;60.20;;;;;;4987133;28;20022;-76
2021/08/25 10:40:19;;;;;;;22.40;15.85;;;24.80;59.90;;;;;;4984421;28;20370;-75
2021/08/25 10:42:47;;;;;;;24.00;15.70;;;25.00;59.30;;;;;;5002995;28;20030;-75
2021/08/25 10:45:15;;;;;;;20.83;14.98;;;25.10;58.80;;;;;;5001788;28;20077;-76
2021/08/25 10:48:02;;;;;;;29.10;16.55;;;25.30;58.70;;;;;;4984726;28;20048;-75
2021/08/25 10:50:46;;;;;;;29.50;16.13;;;25.50;58.10;;;;;;5003189;28;20022;-74
2021/08/25 10:53:31;;;;;;;26.58;16.88;;;25.70;57.80;;;;;;5002573;28;20469;-75
2021/08/25 10:56:13;;;;;;;24.55;15.75;;;25.90;57.30;;;;;;5001701;28;20468;-75
2021/08/25 10:58:46;;;;;;;;;;;25.90;56.80;;;;;;4984786;28;20030;-74
2021/08/25 11:01:35;;;;;;;27.48;16.33;;;26.10;57.00;;;;;;4985088;28;20055;-72
2021/08/25 11:04:13;;;;;;;26.02;15.10;;;26.20;56.60;;;;;;4981744;28;20077;-74
2021/08/25 11:06:44;;;;;;;24.67;15.27;;;26.20;56.00;;;;;;5000498;28;20014;-73
2021/08/25 11:09:35;;;;;;;29.33;15.13;;;26.30;56.40;;;;;;5000050;28;20109;-73
2021/08/25 11:12:12;;;;;;;26.80;15.32;;;26.40;55.30;;;;;;5001849;28;20511;-74
2021/08/25 11:14:41;;;;;;;32.30;16.27;;;26.60;55.10;;;;;;4999315;28;20034;-72
2021/08/25 11:17:11;;;;;;;25.85;14.80;;;26.70;54.90;;;;;;4985994;28;20022;-72
2021/08/25 11:19:48;;;;;;;31.55;15.55;;;26.90;54.50;;;;;;5001227;28;20449;-74
2021/08/25 11:22:15;;;;;;;64.72;28.90;;;27.00;54.20;;;;;;5001390;28;20388;-72
2021/08/25 11:24:44;;;;;;;104.43;44.70;;;27.20;53.90;;;;;;4984368;28;20035;-72
2021/08/25 11:27:20;;;;;;;78.38;37.25;;;27.40;53.10;;;;;;5002591;28;20436;-73
2021/08/25 11:30:09;;;;;;;63.20;27.00;;;27.60;53.00;;;;;;5000098;28;20149;-75
2021/08/25 11:32:55;;;;;;;66.30;29.30;;;27.90;51.90;;;;;;5001226;28;20054;-72
2021/08/25 11:35:34;;;;;;;70.55;32.55;;;28.30;51.30;;;;;;4994760;28;20050;-72
2021/08/25 11:38:11;;;;;;;91.15;42.90;;;28.50;50.80;;;;;;4975232;28;20026;-74
2021/08/25 11:40:42;;;;;;;86.47;41.05;;;28.70;50.40;;;;;;4975082;28;20073;-73
2021/08/25 11:43:12;;;;;;;102.18;46.55;;;28.80;50.50;;;;;;4992874;28;20027;-73
2021/08/25 11:45:39;;;;;;;83.25;43.28;;;29.00;50.20;;;;;;4992521;28;20022;-72
2021/08/25 11:48:07;;;;;;;82.45;40.63;;;29.10;50.20;;;;;;4992542;28;20101;-75
2021/08/25 11:50:39;;;;;;;78.32;38.70;;;29.30;50.20;;;;;;4992671;28;20031;-74
2021/08/25 11:53:15;;;;;;;;;;;29.30;50.10;;;;;;4992902;28;20109;-74
2021/08/25 11:55:41;;;;;;;56.70;30.13;;;29.30;50.30;;;;;;4992672;28;19992;-73
2021/08/25 11:58:27;;;;;;;47.08;28.52;;;29.30;50.30;;;;;;4975178;28;20467;-74
2021/08/25 12:00:55;;;;;;;55.13;31.13;;;29.30;50.30;;;;;;4992926;28;20022;-75
2021/08/25 12:03:36;;;;;;;44.63;26.15;;;29.30;50.30;;;;;;4992251;28;20081;-74
2021/08/25 12:06:02;;;;;;;38.80;22.80;;;29.20;50.30;;;;;;4992274;28;20030;-75
2021/08/25 12:08:41;;;;;;;43.30;26.80;;;29.10;50.50;;;;;;5001578;28;20040;-71
2021/08/25 12:11:08;;;;;;;44.75;26.05;;;29.10;50.80;;;;;;4993930;28;20030;-74
2021/08/25 12:13:36;;;;;;;43.75;25.65;;;29.00;51.00;;;;;;5011709;28;20105;-72
2021/08/25 12:16:10;;;;;;;43.70;25.55;;;29.10;51.20;;;;;;5008611;28;20520;-74
2021/08/25 12:18:52;;;;;;;39.17;25.05;;;29.10;51.20;;;;;;5003193;28;20133;-74
2021/08/25 12:21:17;;;;;;;;;;;29.20;51.40;;;;;;4994547;28;20380;-74
2021/08/25 12:24:09;;;;;;;30.60;22.67;;;29.20;51.30;;;;;;5011765;28;19905;-73
2021/08/25 12:26:40;;;;;;;37.42;24.42;;;29.20;51.10;;;;;;4992075;28;20382;-73
2021/08/25 12:29:07;;;;;;;39.40;23.45;;;29.20;51.20;;;;;;4991820;28;20030;-72
2021/08/25 12:31:35;;;;;;;44.75;26.25;;;29.10;51.30;;;;;;4992036;28;20021;-73
2021/08/25 12:34:04;;;;;;;59.10;25.27;;;29.10;51.40;;;;;;5001779;28;20396;-73